createdAt,value
2023-06-19T00:02:09.474Z,46.72
2023-06-19T00:04:31.082Z,46.39
2023-06-19T00:06:52.625Z,48.48
2023-06-19T00:09:14.414Z,49.83
2023-06-19T00:11:35.881Z,48.44
2023-06-19T00:13:57.397Z,48.49
2023-06-19T00:16:20.292Z,47.99
2023-06-19T00:18:42.100Z,47.63
2023-06-19T00:21:06.785Z,47.82
2023-06-19T00:23:28.270Z,47.83
2023-06-19T00:25:49.942Z,48.17
2023-06-19T00:28:15.083Z,48.92
2023-06-19T00:30:36.621Z,47.61
2023-06-19T00:32:58.708Z,46.37
2023-06-19T00:35:20.259Z,49.65
2023-06-19T00:37:45.672Z,50.44
2023-06-19T00:40:11.642Z,49.37
2023-06-19T00:42:33.111Z,49.52
2023-06-19T00:44:54.557Z,49.06
2023-06-19T00:47:16.115Z,48.58
2023-06-19T00:49:37.599Z,48.60
2023-06-19T00:51:59.416Z,50.49
2023-06-19T00:54:22.237Z,49.13
2023-06-19T00:56:43.704Z,48.94
2023-06-19T00:59:08.949Z,47.74
2023-06-19T01:01:30.584Z,47.78
2023-06-19T01:03:52.150Z,46.47
2023-06-19T01:06:25.956Z,46.87
2023-06-19T01:08:54.433Z,48.09
2023-06-19T01:11:26.663Z,47.47
2023-06-19T01:13:57.049Z,47.79
2023-06-19T01:16:19.270Z,47.72
2023-06-19T01:18:41.362Z,46.50
2023-06-19T01:21:13.780Z,48.35
2023-06-19T01:23:35.252Z,48.43
2023-06-19T01:25:56.701Z,48.25
2023-06-19T01:28:18.177Z,48.66
2023-06-19T01:30:42.697Z,49.74
2023-06-19T01:33:07.873Z,49.62
2023-06-19T01:35:34.109Z,50.28
2023-06-19T01:37:57.149Z,51.37
2023-06-19T01:40:22.799Z,50.58
2023-06-19T01:42:44.912Z,49.85
2023-06-19T01:45:07.773Z,50.03
2023-06-19T01:47:29.327Z,49.64
2023-06-19T01:49:50.851Z,49.70
2023-06-19T01:52:12.329Z,49.98
2023-06-19T01:54:33.814Z,49.91
2023-06-19T01:56:55.372Z,50.96
2023-06-19T01:59:16.834Z,51.02
2023-06-19T02:01:38.391Z,51.11
2023-06-19T02:03:59.900Z,51.61
2023-06-19T02:06:22.581Z,51.40
2023-06-19T02:08:44.055Z,51.09
2023-06-19T02:11:05.527Z,50.68
2023-06-19T02:13:26.972Z,49.87
2023-06-19T02:15:48.521Z,50.35
2023-06-19T02:18:10.029Z,50.69
2023-06-19T02:20:31.600Z,52.80
2023-06-19T02:22:53.571Z,52.88
2023-06-19T02:25:15.176Z,52.49
2023-06-19T02:27:36.640Z,52.15
2023-06-19T02:29:58.130Z,52.05
2023-06-19T02:32:19.609Z,51.86
2023-06-19T02:34:41.096Z,53.00
2023-06-19T02:37:02.587Z,53.15
2023-06-19T02:39:24.889Z,52.54
2023-06-19T02:41:47.905Z,52.47
2023-06-19T02:44:09.379Z,52.87
2023-06-19T02:46:30.846Z,53.46
2023-06-19T02:48:52.370Z,53.21
2023-06-19T02:51:13.821Z,53.63
2023-06-19T02:53:35.520Z,52.99
2023-06-19T02:55:56.968Z,52.04
2023-06-19T02:58:18.441Z,50.62
2023-06-19T03:00:40.767Z,51.47
2023-06-19T03:03:02.301Z,53.41
2023-06-19T03:05:23.853Z,51.94
2023-06-19T03:07:45.987Z,51.70
2023-06-19T03:10:07.648Z,51.54
2023-06-19T03:12:29.082Z,51.44
2023-06-19T03:14:50.595Z,51.91
2023-06-19T03:17:13.236Z,52.00
2023-06-19T03:19:35.401Z,52.53
2023-06-19T03:21:56.860Z,52.38
2023-06-19T03:24:18.372Z,52.73
2023-06-19T03:26:39.879Z,52.55
2023-06-19T03:29:01.356Z,52.15
2023-06-19T03:31:22.797Z,53.45
2023-06-19T03:33:44.464Z,52.83
2023-06-19T03:36:06.792Z,52.56
2023-06-19T03:38:28.285Z,52.36
2023-06-19T03:40:49.734Z,52.03
2023-06-19T03:43:12.056Z,49.76
2023-06-19T03:45:33.570Z,48.90
2023-06-19T03:47:55.093Z,48.12
2023-06-19T03:50:30.893Z,47.91
2023-06-19T03:52:52.526Z,52.34
2023-06-19T03:55:13.984Z,51.55
2023-06-19T03:57:35.463Z,50.79
2023-06-19T03:59:57.705Z,49.82
2023-06-19T04:02:19.175Z,49.30
2023-06-19T04:04:40.621Z,48.31
2023-06-19T04:07:02.213Z,48.22
2023-06-19T04:09:23.734Z,47.95
2023-06-19T04:11:45.225Z,48.93
2023-06-19T04:14:06.670Z,48.99
2023-06-19T04:16:28.172Z,49.33
2023-06-19T04:18:49.679Z,49.26
2023-06-19T04:21:11.148Z,48.17
2023-06-19T04:23:32.605Z,47.22
2023-06-19T04:25:54.120Z,48.13
2023-06-19T04:28:15.567Z,47.47
2023-06-19T04:30:40.350Z,46.99
2023-06-19T04:33:01.955Z,47.04
2023-06-19T04:35:24.823Z,45.77
2023-06-19T04:37:46.479Z,45.93
2023-06-19T04:40:09.148Z,44.07
2023-06-19T04:42:30.669Z,44.26
2023-06-19T04:44:52.227Z,43.07
2023-06-19T04:47:14.571Z,40.88
2023-06-19T04:49:36.003Z,40.63
2023-06-19T04:51:58.538Z,40.78
2023-06-19T04:54:19.978Z,41.12
2023-06-19T04:56:41.540Z,40.27
2023-06-19T04:59:03.727Z,40.79
2023-06-19T05:01:29.084Z,39.97
2023-06-19T05:03:50.560Z,40.90
2023-06-19T05:06:12.590Z,41.46
2023-06-19T05:08:34.082Z,41.29
2023-06-19T05:10:55.907Z,41.73
2023-06-19T05:13:19.380Z,42.04
2023-06-19T05:15:40.894Z,41.95
2023-06-19T05:18:02.411Z,41.62
2023-06-19T05:20:24.175Z,42.07
2023-06-19T05:22:46.199Z,43.32
2023-06-19T05:25:08.320Z,42.82
2023-06-19T05:27:29.785Z,42.71
2023-06-19T05:29:51.253Z,42.16
2023-06-19T05:32:12.764Z,43.70
2023-06-19T05:34:34.261Z,43.76
2023-06-19T05:36:55.753Z,43.80
2023-06-19T05:39:19.971Z,43.20
2023-06-19T05:41:42.673Z,43.55
2023-06-19T05:44:04.307Z,42.52
2023-06-19T05:46:25.869Z,42.39
2023-06-19T05:48:48.471Z,41.99
2023-06-19T05:51:09.949Z,42.28
2023-06-19T05:53:32.877Z,42.05
2023-06-19T05:55:54.321Z,42.97
2023-06-19T05:58:15.801Z,43.36
2023-06-19T06:00:37.245Z,43.37
2023-06-19T06:03:02.549Z,42.91
2023-06-19T06:05:25.640Z,42.15
2023-06-19T06:07:47.526Z,39.93
2023-06-19T06:10:09.314Z,40.05
2023-06-19T06:12:31.003Z,39.26
2023-06-19T06:14:52.453Z,38.56
2023-06-19T06:17:13.928Z,38.76
2023-06-19T06:19:35.736Z,38.88
2023-06-19T06:21:57.678Z,39.01
2023-06-19T06:24:19.189Z,40.75
2023-06-19T06:26:40.713Z,40.63
2023-06-19T06:29:02.154Z,40.77
2023-06-19T06:31:24.522Z,41.53
2023-06-19T06:33:46.016Z,42.04
2023-06-19T06:36:09.001Z,42.57
2023-06-19T06:38:30.636Z,42.51
2023-06-19T06:40:52.917Z,43.07
2023-06-19T06:43:14.433Z,42.99
2023-06-19T06:45:38.638Z,44.45
2023-06-19T06:48:00.234Z,43.59
2023-06-19T06:50:22.183Z,43.67
2023-06-19T06:52:44.025Z,43.80
2023-06-19T06:55:06.129Z,44.29
2023-06-19T06:57:27.601Z,45.45
2023-06-19T06:59:49.103Z,46.16
2023-06-19T07:02:10.827Z,46.14
2023-06-19T07:04:32.826Z,46.03
2023-06-19T07:06:54.369Z,46.65
2023-06-19T07:09:18.761Z,47.49
2023-06-19T07:11:40.246Z,47.06
2023-06-19T07:14:03.758Z,47.89
2023-06-19T07:16:25.256Z,46.72
2023-06-19T07:18:46.733Z,47.08
2023-06-19T07:21:13.987Z,47.81
2023-06-19T07:23:37.237Z,47.85
2023-06-19T07:25:59.484Z,48.10
2023-06-19T07:28:20.941Z,47.16
2023-06-19T07:30:42.579Z,46.14
2023-06-19T07:33:04.079Z,46.05
2023-06-19T07:35:25.597Z,45.61
2023-06-19T07:37:47.049Z,45.74
2023-06-19T07:40:08.993Z,44.65
2023-06-19T07:42:30.444Z,44.33
2023-06-19T07:44:51.895Z,45.19
2023-06-19T07:47:14.678Z,44.87
2023-06-19T07:49:37.014Z,43.84
2023-06-19T07:51:58.465Z,44.10
2023-06-19T07:54:20.000Z,43.98
2023-06-19T07:56:42.649Z,42.29
2023-06-19T07:59:06.079Z,42.93
2023-06-19T08:01:27.786Z,43.47
2023-06-19T08:03:49.548Z,43.15
2023-06-19T08:06:11.228Z,42.10
2023-06-19T08:08:32.712Z,42.22
2023-06-19T08:10:54.230Z,42.43
2023-06-19T08:13:15.715Z,42.83
2023-06-19T08:15:37.178Z,42.54
2023-06-19T08:17:58.688Z,41.80
2023-06-19T08:20:22.336Z,42.02
2023-06-19T08:22:44.195Z,43.36
2023-06-19T08:25:06.092Z,43.60
2023-06-19T08:27:27.553Z,42.53
2023-06-19T08:29:49.012Z,42.51
2023-06-19T08:32:10.542Z,43.07
2023-06-19T08:34:31.993Z,41.78
2023-06-19T08:36:53.459Z,42.11
2023-06-19T08:39:15.045Z,41.75
2023-06-19T08:41:40.117Z,40.60
2023-06-19T08:44:01.626Z,40.90
2023-06-19T08:46:23.239Z,40.93
2023-06-19T08:48:45.573Z,41.83
2023-06-19T08:51:07.304Z,41.93
2023-06-19T08:53:28.999Z,41.99
2023-06-19T08:55:51.969Z,41.05
2023-06-19T08:58:22.617Z,40.41
2023-06-19T09:00:48.467Z,40.48
2023-06-19T09:03:14.658Z,40.14
2023-06-19T09:05:41.692Z,39.76
2023-06-19T09:08:03.385Z,39.33
2023-06-19T09:10:25.894Z,40.18
2023-06-19T09:13:04.783Z,39.17
2023-06-19T09:15:32.379Z,39.61
2023-06-19T09:18:08.201Z,39.49
2023-06-19T09:20:30.389Z,41.04
2023-06-19T09:22:56.544Z,40.96
2023-06-19T09:25:19.352Z,41.01
2023-06-19T09:27:40.829Z,40.84
2023-06-19T09:30:02.631Z,41.10
2023-06-19T09:32:32.382Z,40.52
2023-06-19T09:35:01.225Z,40.73
2023-06-19T09:37:25.400Z,40.39
2023-06-19T09:39:48.633Z,40.36
2023-06-19T09:42:11.428Z,41.45
2023-06-19T09:44:45.717Z,41.87
2023-06-19T09:47:19.551Z,40.87
2023-06-19T09:49:41.709Z,40.52
2023-06-19T09:52:03.854Z,40.16
2023-06-19T09:54:26.876Z,39.97
2023-06-19T09:56:52.143Z,40.58
2023-06-19T09:59:14.771Z,39.50
2023-06-19T10:01:38.078Z,39.79
2023-06-19T10:04:08.543Z,40.47
2023-06-19T10:06:31.124Z,39.93
2023-06-19T10:08:52.599Z,40.25
2023-06-19T10:11:14.903Z,40.44
2023-06-19T10:13:39.973Z,40.70
2023-06-19T10:16:02.100Z,40.66
2023-06-19T10:18:26.103Z,39.29
2023-06-19T10:20:48.369Z,39.15
2023-06-19T10:23:20.074Z,38.84
2023-06-19T10:25:44.442Z,38.96
2023-06-19T10:28:27.018Z,39.09
2023-06-19T10:31:05.144Z,37.85
2023-06-19T10:33:28.849Z,38.65
2023-06-19T10:35:50.465Z,38.24
2023-06-19T10:38:15.237Z,37.87
2023-06-19T10:40:38.284Z,38.74
2023-06-19T10:42:59.798Z,38.30
2023-06-19T10:45:22.204Z,38.35
2023-06-19T10:47:44.382Z,38.71
2023-06-19T10:50:16.220Z,39.71
2023-06-19T10:52:40.141Z,38.63
2023-06-19T10:55:01.669Z,38.97
2023-06-19T10:57:30.511Z,39.62
2023-06-19T10:59:52.905Z,38.25
2023-06-19T11:02:14.424Z,39.29
2023-06-19T11:04:39.528Z,37.85
2023-06-19T11:07:06.340Z,36.63
2023-06-19T11:09:27.940Z,36.67
2023-06-19T11:11:49.888Z,35.03
2023-06-19T11:14:13.658Z,35.68
2023-06-19T11:16:35.967Z,35.01
2023-06-19T11:18:58.672Z,34.63
2023-06-19T11:21:20.120Z,33.82
2023-06-19T11:23:41.591Z,33.61
2023-06-19T11:26:07.240Z,32.23
2023-06-19T11:28:30.518Z,34.15
2023-06-19T11:31:00.386Z,32.95
2023-06-19T11:33:25.836Z,32.72
2023-06-19T11:35:56.006Z,33.12
2023-06-19T11:38:22.661Z,34.06
2023-06-19T11:40:44.274Z,33.53
2023-06-19T11:43:05.733Z,33.21
2023-06-19T11:45:27.343Z,30.72
2023-06-19T11:47:50.612Z,30.59
2023-06-19T11:50:13.069Z,30.91
2023-06-19T11:52:34.624Z,30.23
2023-06-19T11:54:56.102Z,28.76
2023-06-19T11:57:17.729Z,28.32
2023-06-19T11:59:43.300Z,28.22
2023-06-19T12:02:05.091Z,28.91
2023-06-19T12:04:27.004Z,30.44
2023-06-19T12:06:48.561Z,29.95
2023-06-19T12:09:10.988Z,29.83
2023-06-19T12:11:32.681Z,29.21
2023-06-19T12:13:54.798Z,30.92
2023-06-19T12:16:16.307Z,30.57
2023-06-19T12:18:38.055Z,30.73
2023-06-19T12:20:59.671Z,30.32
2023-06-19T12:23:21.178Z,30.16
2023-06-19T12:25:42.658Z,30.63
2023-06-19T12:28:09.296Z,31.00
2023-06-19T12:30:30.859Z,31.02
2023-06-19T12:32:52.429Z,29.37
2023-06-19T12:35:13.933Z,29.37
2023-06-19T12:37:35.572Z,28.72
2023-06-19T12:39:57.108Z,28.26
2023-06-19T12:42:18.752Z,27.67
2023-06-19T12:44:41.180Z,28.28
2023-06-19T12:47:02.789Z,28.45
2023-06-19T12:49:24.230Z,27.11
2023-06-19T12:51:45.704Z,26.80
2023-06-19T12:54:07.181Z,27.80
2023-06-19T12:56:28.656Z,27.19
2023-06-19T12:58:50.133Z,26.84
2023-06-19T13:01:11.644Z,26.92
2023-06-19T13:03:33.208Z,27.22
2023-06-19T13:05:54.724Z,26.37
2023-06-19T13:08:16.853Z,26.91
2023-06-19T13:10:39.676Z,28.17
2023-06-19T13:13:01.211Z,29.41
2023-06-19T13:15:22.658Z,29.00
2023-06-19T13:17:44.162Z,30.30
2023-06-19T13:20:06.567Z,30.22
2023-06-19T13:22:28.283Z,30.76
2023-06-19T13:24:49.825Z,31.05
2023-06-19T13:27:11.544Z,30.64
2023-06-19T13:29:33.088Z,30.27
2023-06-19T13:31:54.568Z,30.77
2023-06-19T13:34:17.159Z,31.57
2023-06-19T13:36:39.686Z,32.04
2023-06-19T13:39:01.128Z,32.85
2023-06-19T13:41:25.132Z,32.41
2023-06-19T13:43:46.943Z,32.52
2023-06-19T13:46:09.187Z,33.80
2023-06-19T13:48:30.628Z,33.02
2023-06-19T13:50:52.090Z,33.26
2023-06-19T13:53:14.336Z,32.39
2023-06-19T13:55:36.917Z,30.68
2023-06-19T13:57:58.432Z,29.74
2023-06-19T14:00:20.371Z,29.65
2023-06-19T14:02:42.426Z,28.40
2023-06-19T14:05:08.803Z,27.95
2023-06-19T14:07:30.244Z,30.38
2023-06-19T14:09:54.470Z,30.97
2023-06-19T14:12:15.935Z,29.70
2023-06-19T14:14:37.800Z,29.75
2023-06-19T14:16:59.497Z,30.75
2023-06-19T14:19:21.139Z,30.86
2023-06-19T14:21:42.579Z,31.79
2023-06-19T14:24:04.580Z,33.46
2023-06-19T14:26:26.913Z,33.48
2023-06-19T14:28:48.479Z,32.66
2023-06-19T14:31:09.936Z,30.85
2023-06-19T14:33:32.118Z,31.05
2023-06-19T14:35:53.594Z,30.79
2023-06-19T14:38:15.961Z,29.22
2023-06-19T14:40:37.493Z,28.24
2023-06-19T14:42:58.969Z,29.02
2023-06-19T14:45:20.469Z,28.28
2023-06-19T14:47:42.173Z,28.53
2023-06-19T14:50:03.949Z,28.61
2023-06-19T14:52:25.560Z,30.77
2023-06-19T14:54:47.109Z,30.46
2023-06-19T14:57:08.710Z,30.60
2023-06-19T14:59:31.472Z,30.99
2023-06-19T15:01:52.989Z,30.41
2023-06-19T15:04:14.605Z,31.57
2023-06-19T15:06:36.246Z,31.95
2023-06-19T15:08:58.805Z,31.98
2023-06-19T15:11:20.385Z,31.26
2023-06-19T15:13:41.844Z,30.90
2023-06-19T15:16:06.115Z,31.45
2023-06-19T15:18:28.354Z,30.81
2023-06-19T15:20:50.042Z,30.33
2023-06-19T15:23:11.563Z,29.13
2023-06-19T15:25:33.009Z,27.92
2023-06-19T15:27:54.465Z,28.24
2023-06-19T15:30:15.939Z,28.44
2023-06-19T15:32:37.444Z,27.74
2023-06-19T15:34:58.911Z,26.57
2023-06-19T15:37:20.397Z,26.83
2023-06-19T15:39:43.074Z,26.55
2023-06-19T15:42:05.246Z,27.18
2023-06-19T15:44:26.692Z,26.68
2023-06-19T15:46:48.169Z,25.14
2023-06-19T15:49:12.713Z,25.97
2023-06-19T15:51:34.195Z,26.45
2023-06-19T15:53:55.659Z,26.42
2023-06-19T15:56:17.172Z,27.46
2023-06-19T15:58:39.174Z,28.71
2023-06-19T16:01:00.669Z,29.61
2023-06-19T16:03:22.449Z,30.77
2023-06-19T16:05:54.252Z,30.89
2023-06-19T16:08:26.548Z,31.52
2023-06-19T16:10:48.214Z,31.23
2023-06-19T16:13:09.756Z,30.48
2023-06-19T16:15:32.825Z,29.19
2023-06-19T16:17:55.857Z,29.27
2023-06-19T16:20:17.661Z,30.47
2023-06-19T16:22:39.126Z,31.31
2023-06-19T16:25:01.233Z,32.84
2023-06-19T16:27:22.695Z,32.98
2023-06-19T16:29:44.326Z,34.53
2023-06-19T16:32:10.318Z,34.63
2023-06-19T16:34:32.600Z,33.16
2023-06-19T16:36:54.065Z,31.48
2023-06-19T16:39:17.484Z,30.13
2023-06-19T16:41:39.140Z,29.69
2023-06-19T16:44:00.599Z,29.76
2023-06-19T16:46:22.119Z,29.09
2023-06-19T16:48:43.631Z,29.73
2023-06-19T16:51:05.156Z,30.10
2023-06-19T16:53:26.634Z,30.31
2023-06-19T16:55:50.316Z,30.67
2023-06-19T16:58:11.788Z,30.65
2023-06-19T17:00:33.314Z,30.62
2023-06-19T17:02:56.711Z,30.83
2023-06-19T17:05:18.340Z,30.01
2023-06-19T17:07:40.090Z,30.68
2023-06-19T17:10:03.488Z,30.72
2023-06-19T17:12:25.067Z,31.40
2023-06-19T17:14:46.533Z,31.19
2023-06-19T17:17:08.246Z,32.68
2023-06-19T17:19:29.818Z,34.18
2023-06-19T17:21:51.410Z,35.03
2023-06-19T17:24:16.416Z,35.86
2023-06-19T17:26:39.517Z,37.71
2023-06-19T17:29:05.109Z,37.94
2023-06-19T17:31:26.609Z,38.50
2023-06-19T17:33:48.068Z,39.39
2023-06-19T17:36:10.950Z,39.93
2023-06-19T17:38:32.805Z,40.53
2023-06-19T17:40:54.294Z,40.45
2023-06-19T17:43:15.778Z,41.07
2023-06-19T17:45:37.239Z,41.01
2023-06-19T17:47:58.747Z,42.32
2023-06-19T17:50:20.242Z,42.83
2023-06-19T17:52:41.754Z,42.90
2023-06-19T17:55:03.392Z,43.26
2023-06-19T17:57:25.620Z,43.76
2023-06-19T17:59:47.747Z,43.32
2023-06-19T18:02:09.285Z,43.86
2023-06-19T18:04:30.830Z,45.23
2023-06-19T18:06:52.288Z,47.13
2023-06-19T18:09:14.938Z,48.62
2023-06-19T18:11:36.498Z,46.26
2023-06-19T18:13:57.973Z,46.02
2023-06-19T18:16:19.457Z,46.56
2023-06-19T18:18:40.970Z,47.25
2023-06-19T18:21:02.455Z,46.38
2023-06-19T18:23:24.654Z,46.68
2023-06-19T18:25:46.188Z,46.37
2023-06-19T18:28:07.726Z,45.74
2023-06-19T18:30:29.269Z,46.85
2023-06-19T18:32:50.776Z,47.71
2023-06-19T18:35:12.242Z,48.56
2023-06-19T18:37:33.848Z,47.47
2023-06-19T18:39:55.322Z,48.43
2023-06-19T18:42:17.731Z,49.06
2023-06-19T18:44:39.182Z,48.90
2023-06-19T18:47:00.689Z,48.51
2023-06-19T18:49:22.537Z,48.22
2023-06-19T18:51:44.018Z,48.05
2023-06-19T18:54:05.577Z,48.28
2023-06-19T18:56:27.107Z,47.60
2023-06-19T18:58:48.656Z,46.76
2023-06-19T19:01:10.453Z,46.49
2023-06-19T19:03:32.104Z,46.73
2023-06-19T19:05:53.757Z,47.51
2023-06-19T19:08:15.742Z,47.66
2023-06-19T19:10:38.591Z,46.81
2023-06-19T19:13:00.058Z,47.54
2023-06-19T19:15:21.540Z,46.92
2023-06-19T19:17:43.114Z,47.25
2023-06-19T19:20:07.249Z,47.81
2023-06-19T19:22:28.736Z,47.60
2023-06-19T19:24:50.300Z,47.78
2023-06-19T19:27:11.833Z,48.02
2023-06-19T19:29:33.484Z,47.80
2023-06-19T19:31:55.023Z,47.48
2023-06-19T19:34:20.753Z,48.56
2023-06-19T19:36:43.182Z,49.59
2023-06-19T19:39:04.648Z,49.29
2023-06-19T19:41:26.131Z,49.45
2023-06-19T19:43:47.665Z,49.74
2023-06-19T19:46:09.225Z,49.86
2023-06-19T19:48:30.780Z,49.96
2023-06-19T19:50:52.296Z,49.72
2023-06-19T19:53:13.810Z,49.72
2023-06-19T19:55:35.335Z,49.24
2023-06-19T19:57:59.647Z,51.07
2023-06-19T20:00:21.186Z,52.07
2023-06-19T20:02:43.461Z,51.58
2023-06-19T20:05:05.505Z,51.14
2023-06-19T20:07:26.971Z,50.92
2023-06-19T20:09:48.432Z,52.07
2023-06-19T20:12:19.969Z,52.26
2023-06-19T20:14:42.675Z,52.98
2023-06-19T20:17:04.185Z,52.43
2023-06-19T20:19:26.957Z,52.45
2023-06-19T20:21:48.421Z,54.11
2023-06-19T20:24:09.906Z,54.67
2023-06-19T20:26:33.540Z,56.25
2023-06-19T20:28:56.227Z,55.67
2023-06-19T20:31:18.277Z,54.88
2023-06-19T20:33:39.752Z,56.04
2023-06-19T20:36:02.203Z,57.62
2023-06-19T20:38:24.461Z,56.77
2023-06-19T20:40:46.032Z,56.27
2023-06-19T20:43:08.763Z,56.62
2023-06-19T20:45:30.216Z,58.06
2023-06-19T20:47:53.318Z,57.07
2023-06-19T20:50:15.201Z,56.74
2023-06-19T20:52:36.720Z,56.68
2023-06-19T20:54:58.176Z,58.32
2023-06-19T20:57:19.683Z,57.28
2023-06-19T20:59:41.334Z,57.19
2023-06-19T21:02:04.006Z,59.65
2023-06-19T21:04:25.490Z,59.50
2023-06-19T21:06:46.964Z,58.89
2023-06-19T21:09:09.494Z,58.65
2023-06-19T21:11:31.424Z,60.04
2023-06-19T21:13:52.892Z,60.27
2023-06-19T21:16:14.563Z,60.68
2023-06-19T21:18:36.198Z,61.12
2023-06-19T21:20:57.709Z,62.76
2023-06-19T21:23:19.165Z,62.14
2023-06-19T21:25:40.867Z,62.56
2023-06-19T21:28:02.314Z,61.86
2023-06-19T21:30:23.919Z,61.01
2023-06-19T21:32:45.644Z,60.26
2023-06-19T21:35:07.547Z,60.57
2023-06-19T21:37:30.075Z,61.77
2023-06-19T21:39:51.558Z,60.95
2023-06-19T21:42:13.008Z,62.12
2023-06-19T21:44:34.475Z,63.56
2023-06-19T21:46:55.941Z,64.22
2023-06-19T21:49:17.483Z,63.25
2023-06-19T21:51:38.945Z,62.51
2023-06-19T21:54:01.292Z,63.77
2023-06-19T21:56:22.858Z,66.42
2023-06-19T21:58:44.343Z,64.00
2023-06-19T22:01:05.841Z,63.20
2023-06-19T22:03:27.496Z,62.68
2023-06-19T22:05:49.045Z,62.21
2023-06-19T22:08:10.553Z,61.88
2023-06-19T22:10:33.215Z,64.61
2023-06-19T22:12:54.805Z,66.38
2023-06-19T22:15:16.528Z,66.62
2023-06-19T22:17:38.387Z,67.38
2023-06-19T22:19:59.896Z,67.30
2023-06-19T22:22:21.549Z,65.59
2023-06-19T22:24:43.168Z,65.12
2023-06-19T22:27:05.662Z,63.95
2023-06-19T22:29:27.118Z,63.73
2023-06-19T22:31:48.648Z,63.21
2023-06-19T22:34:10.176Z,62.89
2023-06-19T22:36:31.658Z,62.94
2023-06-19T22:38:53.750Z,62.79
2023-06-19T22:41:15.343Z,62.53
2023-06-19T22:43:36.799Z,61.99
2023-06-19T22:45:58.683Z,62.02
2023-06-19T22:48:20.240Z,62.25
2023-06-19T22:50:41.674Z,61.50
2023-06-19T22:53:03.908Z,62.31
2023-06-19T22:55:25.872Z,63.59
2023-06-19T22:57:47.890Z,64.02
2023-06-19T23:00:13.678Z,63.44
2023-06-19T23:02:35.430Z,63.00
2023-06-19T23:04:57.083Z,63.06
2023-06-19T23:07:18.553Z,63.11
2023-06-19T23:09:39.992Z,62.84
2023-06-19T23:12:02.304Z,62.94
2023-06-19T23:14:24.035Z,64.71
2023-06-19T23:16:45.524Z,65.95
2023-06-19T23:19:07.399Z,65.28
2023-06-19T23:21:31.479Z,64.85
2023-06-19T23:23:53.056Z,65.16
2023-06-19T23:26:15.566Z,64.90
2023-06-19T23:28:37.038Z,65.17
2023-06-19T23:30:59.785Z,65.93
2023-06-19T23:33:21.480Z,68.07
2023-06-19T23:35:42.954Z,66.75
2023-06-19T23:38:04.396Z,66.45
2023-06-19T23:40:27.877Z,69.24
2023-06-19T23:42:49.363Z,69.39
2023-06-19T23:45:11.059Z,68.61
2023-06-19T23:47:32.535Z,67.99
2023-06-19T23:49:54.045Z,68.31
2023-06-19T23:52:16.778Z,69.12
2023-06-19T23:54:39.590Z,69.78
2023-06-19T23:57:01.056Z,71.95
2023-06-19T23:59:22.513Z,70.46
